sensor_id;sensor_type;location;lat;lon;timestamp;P1;durP1;ratioP1;P2;durP2;ratioP2
61096;SDS011;46977;50.936;6.908;2022-12-29T00:00:54;0.30;;;0.30;;
61096;SDS011;46977;50.936;6.908;2022-12-29T00:03:56;0.32;;;0.30;;
61096;SDS011;46977;50.936;6.908;2022-12-29T00:06:59;0.55;;;0.20;;
61096;SDS011;46977;50.936;6.908;2022-12-29T00:10:01;0.52;;;0.20;;
61096;SDS011;46977;50.936;6.908;2022-12-29T00:13:06;0.35;;;0.35;;
61096;SDS011;46977;50.936;6.908;2022-12-29T00:16:28;0.43;;;0.40;;
61096;SDS011;46977;50.936;6.908;2022-12-29T00:19:31;0.40;;;0.22;;
61096;SDS011;46977;50.936;6.908;2022-12-29T00:22:51;0.25;;;0.20;;
61096;SDS011;46977;50.936;6.908;2022-12-29T00:26:15;0.85;;;0.30;;
61096;SDS011;46977;50.936;6.908;2022-12-29T00:33:17;0.55;;;0.20;;
61096;SDS011;46977;50.936;6.908;2022-12-29T00:36:39;0.88;;;0.28;;
61096;SDS011;46977;50.936;6.908;2022-12-29T00:39:43;0.20;;;0.10;;
61096;SDS011;46977;50.936;6.908;2022-12-29T00:43:06;0.10;;;0.10;;
61096;SDS011;46977;50.936;6.908;2022-12-29T00:46:29;0.00;;;0.00;;
61096;SDS011;46977;50.936;6.908;2022-12-29T00:49:31;0.08;;;0.08;;
61096;SDS011;46977;50.936;6.908;2022-12-29T00:52:35;0.20;;;0.10;;
61096;SDS011;46977;50.936;6.908;2022-12-29T00:55:37;0.65;;;0.00;;
61096;SDS011;46977;50.936;6.908;2022-12-29T00:58:42;0.10;;;0.10;;
61096;SDS011;46977;50.936;6.908;2022-12-29T01:01:46;0.20;;;0.10;;
61096;SDS011;46977;50.936;6.908;2022-12-29T01:04:48;0.28;;;0.28;;
61096;SDS011;46977;50.936;6.908;2022-12-29T01:07:51;0.45;;;0.00;;
61096;SDS011;46977;50.936;6.908;2022-12-29T01:10:59;0.13;;;0.05;;
61096;SDS011;46977;50.936;6.908;2022-12-29T01:14:02;0.10;;;0.08;;
61096;SDS011;46977;50.936;6.908;2022-12-29T01:17:06;0.10;;;0.10;;
61096;SDS011;46977;50.936;6.908;2022-12-29T01:20:09;0.20;;;0.00;;
61096;SDS011;46977;50.936;6.908;2022-12-29T01:23:12;0.17;;;0.00;;
61096;SDS011;46977;50.936;6.908;2022-12-29T01:26:16;0.20;;;0.10;;
61096;SDS011;46977;50.936;6.908;2022-12-29T01:29:19;0.10;;;0.10;;
61096;SDS011;46977;50.936;6.908;2022-12-29T01:32:22;0.00;;;0.00;;
61096;SDS011;46977;50.936;6.908;2022-12-29T01:35:24;0.00;;;0.00;;
61096;SDS011;46977;50.936;6.908;2022-12-29T01:38:27;0.05;;;0.05;;
61096;SDS011;46977;50.936;6.908;2022-12-29T01:41:29;1.55;;;0.10;;
61096;SDS011;46977;50.936;6.908;2022-12-29T01:48:03;0.17;;;0.05;;
61096;SDS011;46977;50.936;6.908;2022-12-29T01:51:06;0.85;;;0.10;;
61096;SDS011;46977;50.936;6.908;2022-12-29T01:54:22;0.13;;;0.10;;
61096;SDS011;46977;50.936;6.908;2022-12-29T01:57:30;0.10;;;0.10;;
61096;SDS011;46977;50.936;6.908;2022-12-29T02:00:35;0.10;;;0.10;;
61096;SDS011;46977;50.936;6.908;2022-12-29T02:03:39;0.10;;;0.10;;
61096;SDS011;46977;50.936;6.908;2022-12-29T02:06:43;0.45;;;0.20;;
61096;SDS011;46977;50.936;6.908;2022-12-29T02:09:49;2.15;;;0.20;;
61096;SDS011;46977;50.936;6.908;2022-12-29T02:12:53;0.30;;;0.10;;
61096;SDS011;46977;50.936;6.908;2022-12-29T02:15:57;0.13;;;0.10;;
61096;SDS011;46977;50.936;6.908;2022-12-29T02:19:17;0.85;;;0.30;;
61096;SDS011;46977;50.936;6.908;2022-12-29T02:22:35;1.35;;;0.68;;
61096;SDS011;46977;50.936;6.908;2022-12-29T02:25:50;1.25;;;0.77;;
61096;SDS011;46977;50.936;6.908;2022-12-29T02:29:10;2.45;;;0.30;;
61096;SDS011;46977;50.936;6.908;2022-12-29T02:32:22;0.20;;;0.17;;
61096;SDS011;46977;50.936;6.908;2022-12-29T02:35:30;0.13;;;0.13;;
61096;SDS011;46977;50.936;6.908;2022-12-29T02:38:40;0.40;;;0.20;;
61096;SDS011;46977;50.936;6.908;2022-12-29T02:41:52;0.85;;;0.20;;
61096;SDS011;46977;50.936;6.908;2022-12-29T02:45:02;1.10;;;0.30;;
61096;SDS011;46977;50.936;6.908;2022-12-29T02:48:12;0.32;;;0.20;;
61096;SDS011;46977;50.936;6.908;2022-12-29T02:51:19;1.45;;;0.20;;
61096;SDS011;46977;50.936;6.908;2022-12-29T02:54:26;0.32;;;0.20;;
61096;SDS011;46977;50.936;6.908;2022-12-29T02:57:44;0.20;;;0.20;;
61096;SDS011;46977;50.936;6.908;2022-12-29T03:00:51;0.85;;;0.20;;
61096;SDS011;46977;50.936;6.908;2022-12-29T03:04:06;0.10;;;0.10;;
61096;SDS011;46977;50.936;6.908;2022-12-29T03:07:22;0.85;;;0.10;;
61096;SDS011;46977;50.936;6.908;2022-12-29T03:10:30;0.10;;;0.10;;
61096;SDS011;46977;50.936;6.908;2022-12-29T03:13:39;0.63;;;0.30;;
61096;SDS011;46977;50.936;6.908;2022-12-29T03:17:06;0.20;;;0.20;;
61096;SDS011;46977;50.936;6.908;2022-12-29T03:20:14;0.10;;;0.10;;
61096;SDS011;46977;50.936;6.908;2022-12-29T03:23:21;0.22;;;0.10;;
61096;SDS011;46977;50.936;6.908;2022-12-29T03:26:28;0.10;;;0.10;;
61096;SDS011;46977;50.936;6.908;2022-12-29T03:29:31;0.10;;;0.10;;
61096;SDS011;46977;50.936;6.908;2022-12-29T03:32:38;0.17;;;0.17;;
61096;SDS011;46977;50.936;6.908;2022-12-29T03:35:44;0.10;;;0.10;;
61096;SDS011;46977;50.936;6.908;2022-12-29T03:38:49;0.35;;;0.35;;
61096;SDS011;46977;50.936;6.908;2022-12-29T03:41:56;0.10;;;0.10;;
61096;SDS011;46977;50.936;6.908;2022-12-29T03:45:00;0.47;;;0.22;;
61096;SDS011;46977;50.936;6.908;2022-12-29T03:48:03;0.43;;;0.13;;
61096;SDS011;46977;50.936;6.908;2022-12-29T03:51:09;1.20;;;0.30;;
61096;SDS011;46977;50.936;6.908;2022-12-29T03:54:11;0.20;;;0.10;;
61096;SDS011;46977;50.936;6.908;2022-12-29T03:57:19;2.08;;;0.15;;
61096;SDS011;46977;50.936;6.908;2022-12-29T04:00:38;0.20;;;0.15;;
61096;SDS011;46977;50.936;6.908;2022-12-29T04:03:41;1.98;;;0.40;;
61096;SDS011;46977;50.936;6.908;2022-12-29T04:06:46;0.73;;;0.10;;
61096;SDS011;46977;50.936;6.908;2022-12-29T04:09:51;1.90;;;0.20;;
61096;SDS011;46977;50.936;6.908;2022-12-29T04:12:57;0.95;;;0.20;;
61096;SDS011;46977;50.936;6.908;2022-12-29T04:16:00;0.80;;;0.20;;
61096;SDS011;46977;50.936;6.908;2022-12-29T04:19:03;0.20;;;0.20;;
61096;SDS011;46977;50.936;6.908;2022-12-29T04:22:08;1.70;;;0.20;;
61096;SDS011;46977;50.936;6.908;2022-12-29T04:25:11;1.98;;;0.38;;
61096;SDS011;46977;50.936;6.908;2022-12-29T04:28:14;0.20;;;0.20;;
61096;SDS011;46977;50.936;6.908;2022-12-29T04:31:25;2.75;;;0.20;;
61096;SDS011;46977;50.936;6.908;2022-12-29T04:34:28;3.35;;;0.30;;
61096;SDS011;46977;50.936;6.908;2022-12-29T04:37:32;0.30;;;0.30;;
61096;SDS011;46977;50.936;6.908;2022-12-29T04:40:35;0.70;;;0.55;;
61096;SDS011;46977;50.936;6.908;2022-12-29T04:43:37;0.98;;;0.28;;
61096;SDS011;46977;50.936;6.908;2022-12-29T04:47:04;0.50;;;0.20;;
61096;SDS011;46977;50.936;6.908;2022-12-29T04:50:29;0.45;;;0.30;;
61096;SDS011;46977;50.936;6.908;2022-12-29T04:53:52;1.15;;;0.17;;
61096;SDS011;46977;50.936;6.908;2022-12-29T04:56:55;0.60;;;0.20;;
61096;SDS011;46977;50.936;6.908;2022-12-29T04:59:58;0.32;;;0.20;;
61096;SDS011;46977;50.936;6.908;2022-12-29T05:03:01;1.45;;;0.30;;
61096;SDS011;46977;50.936;6.908;2022-12-29T05:06:05;0.85;;;0.20;;
61096;SDS011;46977;50.936;6.908;2022-12-29T05:09:10;0.20;;;0.20;;
61096;SDS011;46977;50.936;6.908;2022-12-29T05:12:13;0.88;;;0.10;;
61096;SDS011;46977;50.936;6.908;2022-12-29T05:15:27;0.43;;;0.20;;
61096;SDS011;46977;50.936;6.908;2022-12-29T05:18:30;0.52;;;0.20;;
61096;SDS011;46977;50.936;6.908;2022-12-29T05:21:33;0.35;;;0.10;;
61096;SDS011;46977;50.936;6.908;2022-12-29T05:24:37;1.10;;;0.30;;
61096;SDS011;46977;50.936;6.908;2022-12-29T05:27:40;0.43;;;0.10;;
61096;SDS011;46977;50.936;6.908;2022-12-29T05:31:18;1.48;;;0.10;;
61096;SDS011;46977;50.936;6.908;2022-12-29T05:34:23;2.15;;;0.10;;
61096;SDS011;46977;50.936;6.908;2022-12-29T05:37:26;0.20;;;0.13;;
61096;SDS011;46977;50.936;6.908;2022-12-29T05:40:30;0.95;;;0.35;;
61096;SDS011;46977;50.936;6.908;2022-12-29T05:43:37;0.70;;;0.30;;
61096;SDS011;46977;50.936;6.908;2022-12-29T05:46:50;0.75;;;0.20;;
61096;SDS011;46977;50.936;6.908;2022-12-29T05:50:15;1.45;;;0.10;;
61096;SDS011;46977;50.936;6.908;2022-12-29T05:53:37;0.10;;;0.10;;
61096;SDS011;46977;50.936;6.908;2022-12-29T05:56:42;2.35;;;0.20;;
61096;SDS011;46977;50.936;6.908;2022-12-29T05:59:47;0.73;;;0.17;;
61096;SDS011;46977;50.936;6.908;2022-12-29T06:02:49;1.15;;;0.17;;
61096;SDS011;46977;50.936;6.908;2022-12-29T06:05:52;0.77;;;0.10;;
61096;SDS011;46977;50.936;6.908;2022-12-29T06:08:55;0.70;;;0.38;;
61096;SDS011;46977;50.936;6.908;2022-12-29T06:11:59;1.27;;;0.47;;
61096;SDS011;46977;50.936;6.908;2022-12-29T06:15:02;1.10;;;0.10;;
61096;SDS011;46977;50.936;6.908;2022-12-29T06:18:05;0.20;;;0.10;;
61096;SDS011;46977;50.936;6.908;2022-12-29T06:21:08;0.30;;;0.20;;
61096;SDS011;46977;50.936;6.908;2022-12-29T06:24:13;1.00;;;0.20;;
61096;SDS011;46977;50.936;6.908;2022-12-29T06:27:17;0.20;;;0.20;;
61096;SDS011;46977;50.936;6.908;2022-12-29T06:30:21;1.10;;;0.30;;
61096;SDS011;46977;50.936;6.908;2022-12-29T06:33:24;0.13;;;0.10;;
61096;SDS011;46977;50.936;6.908;2022-12-29T06:36:27;0.82;;;0.20;;
61096;SDS011;46977;50.936;6.908;2022-12-29T06:39:29;0.40;;;0.10;;
61096;SDS011;46977;50.936;6.908;2022-12-29T06:42:41;0.40;;;0.10;;
61096;SDS011;46977;50.936;6.908;2022-12-29T06:46:12;0.28;;;0.10;;
61096;SDS011;46977;50.936;6.908;2022-12-29T06:49:16;1.30;;;0.10;;
61096;SDS011;46977;50.936;6.908;2022-12-29T06:52:18;1.25;;;0.10;;
61096;SDS011;46977;50.936;6.908;2022-12-29T06:55:20;3.70;;;1.17;;
61096;SDS011;46977;50.936;6.908;2022-12-29T06:58:25;2.30;;;0.20;;
61096;SDS011;46977;50.936;6.908;2022-12-29T07:01:27;0.00;;;0.00;;
61096;SDS011;46977;50.936;6.908;2022-12-29T07:04:30;0.50;;;0.20;;
61096;SDS011;46977;50.936;6.908;2022-12-29T07:07:33;1.35;;;0.40;;
61096;SDS011;46977;50.936;6.908;2022-12-29T07:10:35;0.40;;;0.10;;
61096;SDS011;46977;50.936;6.908;2022-12-29T07:13:39;1.00;;;0.50;;
61096;SDS011;46977;50.936;6.908;2022-12-29T07:16:42;1.13;;;0.08;;
61096;SDS011;46977;50.936;6.908;2022-12-29T07:19:44;0.47;;;0.10;;
61096;SDS011;46977;50.936;6.908;2022-12-29T07:22:47;0.50;;;0.10;;
61096;SDS011;46977;50.936;6.908;2022-12-29T07:25:49;0.70;;;0.10;;
61096;SDS011;46977;50.936;6.908;2022-12-29T07:28:53;1.00;;;0.10;;
61096;SDS011;46977;50.936;6.908;2022-12-29T07:31:55;1.45;;;0.10;;
61096;SDS011;46977;50.936;6.908;2022-12-29T07:34:57;0.30;;;0.15;;
61096;SDS011;46977;50.936;6.908;2022-12-29T07:37:59;0.85;;;0.20;;
61096;SDS011;46977;50.936;6.908;2022-12-29T07:41:02;1.27;;;0.10;;
61096;SDS011;46977;50.936;6.908;2022-12-29T07:44:08;2.05;;;0.30;;
61096;SDS011;46977;50.936;6.908;2022-12-29T07:47:33;2.53;;;0.20;;
61096;SDS011;46977;50.936;6.908;2022-12-29T07:50:35;1.55;;;0.20;;
61096;SDS011;46977;50.936;6.908;2022-12-29T07:53:38;1.95;;;0.10;;
61096;SDS011;46977;50.936;6.908;2022-12-29T07:56:40;0.20;;;0.10;;
61096;SDS011;46977;50.936;6.908;2022-12-29T07:59:44;1.75;;;0.20;;
61096;SDS011;46977;50.936;6.908;2022-12-29T08:02:46;1.00;;;0.13;;
61096;SDS011;46977;50.936;6.908;2022-12-29T08:05:48;0.22;;;0.20;;
61096;SDS011;46977;50.936;6.908;2022-12-29T08:08:51;1.90;;;0.30;;
61096;SDS011;46977;50.936;6.908;2022-12-29T08:11:53;1.02;;;0.20;;
61096;SDS011;46977;50.936;6.908;2022-12-29T08:14:57;0.63;;;0.30;;
61096;SDS011;46977;50.936;6.908;2022-12-29T08:17:59;0.70;;;0.20;;
61096;SDS011;46977;50.936;6.908;2022-12-29T08:21:03;1.23;;;0.10;;
61096;SDS011;46977;50.936;6.908;2022-12-29T08:24:06;0.82;;;0.17;;
61096;SDS011;46977;50.936;6.908;2022-12-29T08:27:08;0.20;;;0.20;;
61096;SDS011;46977;50.936;6.908;2022-12-29T08:30:22;3.55;;;0.30;;
61096;SDS011;46977;50.936;6.908;2022-12-29T08:33:25;0.82;;;0.20;;
61096;SDS011;46977;50.936;6.908;2022-12-29T08:36:28;3.15;;;0.57;;
61096;SDS011;46977;50.936;6.908;2022-12-29T08:39:30;2.58;;;0.30;;
61096;SDS011;46977;50.936;6.908;2022-12-29T08:42:34;1.92;;;0.30;;
61096;SDS011;46977;50.936;6.908;2022-12-29T08:45:37;0.95;;;0.55;;
61096;SDS011;46977;50.936;6.908;2022-12-29T08:48:39;1.05;;;0.20;;
61096;SDS011;46977;50.936;6.908;2022-12-29T08:51:42;2.17;;;0.30;;
61096;SDS011;46977;50.936;6.908;2022-12-29T08:54:44;1.83;;;0.63;;
61096;SDS011;46977;50.936;6.908;2022-12-29T08:57:46;2.80;;;0.40;;
61096;SDS011;46977;50.936;6.908;2022-12-29T09:00:54;0.45;;;0.22;;
61096;SDS011;46977;50.936;6.908;2022-12-29T09:03:56;3.08;;;0.30;;
61096;SDS011;46977;50.936;6.908;2022-12-29T09:07:18;4.33;;;0.20;;
61096;SDS011;46977;50.936;6.908;2022-12-29T09:10:20;1.80;;;0.47;;
61096;SDS011;46977;50.936;6.908;2022-12-29T09:13:22;2.08;;;0.55;;
61096;SDS011;46977;50.936;6.908;2022-12-29T09:16:26;2.58;;;0.22;;
61096;SDS011;46977;50.936;6.908;2022-12-29T09:19:29;5.88;;;0.40;;
61096;SDS011;46977;50.936;6.908;2022-12-29T09:22:32;1.00;;;0.17;;
61096;SDS011;46977;50.936;6.908;2022-12-29T09:25:34;1.20;;;0.30;;
61096;SDS011;46977;50.936;6.908;2022-12-29T09:28:36;1.27;;;0.20;;
61096;SDS011;46977;50.936;6.908;2022-12-29T09:31:40;4.18;;;0.38;;
61096;SDS011;46977;50.936;6.908;2022-12-29T09:34:42;1.50;;;0.28;;
61096;SDS011;46977;50.936;6.908;2022-12-29T09:37:45;2.65;;;0.10;;
61096;SDS011;46977;50.936;6.908;2022-12-29T09:40:49;2.28;;;0.40;;
61096;SDS011;46977;50.936;6.908;2022-12-29T09:44:03;1.10;;;0.60;;
61096;SDS011;46977;50.936;6.908;2022-12-29T09:47:13;1.80;;;0.28;;
61096;SDS011;46977;50.936;6.908;2022-12-29T09:50:19;4.10;;;0.50;;
61096;SDS011;46977;50.936;6.908;2022-12-29T09:53:25;2.88;;;0.30;;
61096;SDS011;46977;50.936;6.908;2022-12-29T09:56:30;2.92;;;0.40;;
61096;SDS011;46977;50.936;6.908;2022-12-29T09:59:36;2.08;;;0.47;;
61096;SDS011;46977;50.936;6.908;2022-12-29T10:02:43;1.85;;;0.30;;
61096;SDS011;46977;50.936;6.908;2022-12-29T10:05:48;1.27;;;0.30;;
61096;SDS011;46977;50.936;6.908;2022-12-29T10:08:54;1.85;;;0.22;;
61096;SDS011;46977;50.936;6.908;2022-12-29T10:12:02;2.45;;;0.50;;
61096;SDS011;46977;50.936;6.908;2022-12-29T10:15:15;3.15;;;0.55;;
61096;SDS011;46977;50.936;6.908;2022-12-29T10:21:57;2.15;;;0.30;;
61096;SDS011;46977;50.936;6.908;2022-12-29T10:25:10;1.90;;;0.32;;
61096;SDS011;46977;50.936;6.908;2022-12-29T10:28:15;3.63;;;0.43;;
61096;SDS011;46977;50.936;6.908;2022-12-29T10:31:24;3.28;;;0.40;;
61096;SDS011;46977;50.936;6.908;2022-12-29T10:34:29;1.67;;;0.30;;
61096;SDS011;46977;50.936;6.908;2022-12-29T10:37:38;9.80;;;0.50;;
61096;SDS011;46977;50.936;6.908;2022-12-29T10:40:46;2.90;;;0.82;;
61096;SDS011;46977;50.936;6.908;2022-12-29T10:43:56;2.47;;;0.40;;
61096;SDS011;46977;50.936;6.908;2022-12-29T10:47:02;3.70;;;1.02;;
61096;SDS011;46977;50.936;6.908;2022-12-29T10:50:12;3.83;;;0.50;;
61096;SDS011;46977;50.936;6.908;2022-12-29T10:53:15;2.78;;;0.35;;
61096;SDS011;46977;50.936;6.908;2022-12-29T10:56:25;5.32;;;0.40;;
61096;SDS011;46977;50.936;6.908;2022-12-29T10:59:32;2.20;;;0.40;;
61096;SDS011;46977;50.936;6.908;2022-12-29T11:02:43;3.78;;;0.40;;
61096;SDS011;46977;50.936;6.908;2022-12-29T11:05:56;3.45;;;0.50;;
61096;SDS011;46977;50.936;6.908;2022-12-29T11:09:01;2.13;;;0.63;;
61096;SDS011;46977;50.936;6.908;2022-12-29T11:12:18;2.30;;;0.40;;
61096;SDS011;46977;50.936;6.908;2022-12-29T11:15:26;3.55;;;0.40;;
61096;SDS011;46977;50.936;6.908;2022-12-29T11:18:31;2.83;;;0.30;;
61096;SDS011;46977;50.936;6.908;2022-12-29T11:21:38;5.05;;;0.38;;
61096;SDS011;46977;50.936;6.908;2022-12-29T11:24:46;0.88;;;0.20;;
61096;SDS011;46977;50.936;6.908;2022-12-29T11:27:54;1.45;;;0.43;;
61096;SDS011;46977;50.936;6.908;2022-12-29T11:30:58;2.78;;;0.30;;
61096;SDS011;46977;50.936;6.908;2022-12-29T11:34:01;2.70;;;0.32;;
61096;SDS011;46977;50.936;6.908;2022-12-29T11:37:12;3.22;;;0.30;;
61096;SDS011;46977;50.936;6.908;2022-12-29T11:40:16;3.47;;;0.77;;
61096;SDS011;46977;50.936;6.908;2022-12-29T11:43:21;4.45;;;0.70;;
61096;SDS011;46977;50.936;6.908;2022-12-29T11:46:29;6.25;;;0.40;;
61096;SDS011;46977;50.936;6.908;2022-12-29T11:49:35;4.75;;;0.50;;
61096;SDS011;46977;50.936;6.908;2022-12-29T11:52:39;3.00;;;0.32;;
61096;SDS011;46977;50.936;6.908;2022-12-29T11:55:48;1.52;;;0.40;;
61096;SDS011;46977;50.936;6.908;2022-12-29T11:58:52;3.10;;;0.40;;
61096;SDS011;46977;50.936;6.908;2022-12-29T12:01:56;0.93;;;0.30;;
61096;SDS011;46977;50.936;6.908;2022-12-29T12:05:08;2.25;;;0.30;;
61096;SDS011;46977;50.936;6.908;2022-12-29T12:08:15;2.53;;;0.77;;
61096;SDS011;46977;50.936;6.908;2022-12-29T12:11:26;2.50;;;0.30;;
61096;SDS011;46977;50.936;6.908;2022-12-29T12:14:38;3.58;;;0.40;;
61096;SDS011;46977;50.936;6.908;2022-12-29T12:17:57;1.92;;;0.50;;
61096;SDS011;46977;50.936;6.908;2022-12-29T12:21:12;2.85;;;0.57;;
61096;SDS011;46977;50.936;6.908;2022-12-29T12:24:23;3.25;;;0.38;;
61096;SDS011;46977;50.936;6.908;2022-12-29T12:27:41;2.63;;;0.60;;
61096;SDS011;46977;50.936;6.908;2022-12-29T12:30:47;2.83;;;0.32;;
61096;SDS011;46977;50.936;6.908;2022-12-29T12:33:57;3.35;;;0.30;;
61096;SDS011;46977;50.936;6.908;2022-12-29T12:37:06;4.63;;;1.58;;
61096;SDS011;46977;50.936;6.908;2022-12-29T12:40:27;4.25;;;0.30;;
61096;SDS011;46977;50.936;6.908;2022-12-29T12:43:37;4.43;;;0.60;;
61096;SDS011;46977;50.936;6.908;2022-12-29T12:46:52;5.38;;;0.88;;
61096;SDS011;46977;50.936;6.908;2022-12-29T12:50:28;1.33;;;0.40;;
61096;SDS011;46977;50.936;6.908;2022-12-29T12:53:44;1.85;;;0.30;;
61096;SDS011;46977;50.936;6.908;2022-12-29T12:56:58;3.40;;;0.45;;
61096;SDS011;46977;50.936;6.908;2022-12-29T13:00:07;4.95;;;0.50;;
61096;SDS011;46977;50.936;6.908;2022-12-29T13:03:12;3.78;;;0.55;;
61096;SDS011;46977;50.936;6.908;2022-12-29T13:06:22;1.80;;;0.30;;
61096;SDS011;46977;50.936;6.908;2022-12-29T13:14:51;2.38;;;0.35;;
61096;SDS011;46977;50.936;6.908;2022-12-29T13:18:11;2.33;;;0.40;;
61096;SDS011;46977;50.936;6.908;2022-12-29T13:26:32;2.45;;;0.40;;
61096;SDS011;46977;50.936;6.908;2022-12-29T13:29:49;7.10;;;1.27;;
61096;SDS011;46977;50.936;6.908;2022-12-29T13:38:05;3.05;;;0.40;;
61096;SDS011;46977;50.936;6.908;2022-12-29T13:41:13;2.92;;;0.52;;
61096;SDS011;46977;50.936;6.908;2022-12-29T13:44:20;11.13;;;0.63;;
61096;SDS011;46977;50.936;6.908;2022-12-29T13:47:27;2.75;;;0.40;;
61096;SDS011;46977;50.936;6.908;2022-12-29T13:50:33;3.10;;;0.47;;
61096;SDS011;46977;50.936;6.908;2022-12-29T13:53:40;3.90;;;0.57;;
61096;SDS011;46977;50.936;6.908;2022-12-29T13:56:52;2.90;;;0.40;;
61096;SDS011;46977;50.936;6.908;2022-12-29T13:59:59;5.18;;;0.55;;
61096;SDS011;46977;50.936;6.908;2022-12-29T14:03:19;2.92;;;0.30;;
61096;SDS011;46977;50.936;6.908;2022-12-29T14:06:32;5.55;;;0.70;;
61096;SDS011;46977;50.936;6.908;2022-12-29T14:09:43;2.53;;;0.50;;
61096;SDS011;46977;50.936;6.908;2022-12-29T14:12:48;7.47;;;0.70;;
61096;SDS011;46977;50.936;6.908;2022-12-29T14:15:52;3.10;;;0.30;;
61096;SDS011;46977;50.936;6.908;2022-12-29T14:19:03;1.17;;;0.50;;
61096;SDS011;46977;50.936;6.908;2022-12-29T14:22:07;3.22;;;0.50;;
61096;SDS011;46977;50.936;6.908;2022-12-29T14:25:23;2.20;;;0.40;;
61096;SDS011;46977;50.936;6.908;2022-12-29T14:32:42;5.53;;;0.93;;
61096;SDS011;46977;50.936;6.908;2022-12-29T14:36:19;1.23;;;0.40;;
61096;SDS011;46977;50.936;6.908;2022-12-29T14:39:31;3.17;;;0.20;;
61096;SDS011;46977;50.936;6.908;2022-12-29T14:42:35;4.60;;;0.20;;
61096;SDS011;46977;50.936;6.908;2022-12-29T14:45:42;3.47;;;0.30;;
61096;SDS011;46977;50.936;6.908;2022-12-29T14:48:44;3.85;;;0.43;;
61096;SDS011;46977;50.936;6.908;2022-12-29T14:51:48;3.60;;;0.40;;
61096;SDS011;46977;50.936;6.908;2022-12-29T14:54:53;1.38;;;0.30;;
61096;SDS011;46977;50.936;6.908;2022-12-29T14:57:58;2.22;;;0.40;;
61096;SDS011;46977;50.936;6.908;2022-12-29T15:01:02;3.28;;;0.50;;
61096;SDS011;46977;50.936;6.908;2022-12-29T15:04:06;5.13;;;0.43;;
61096;SDS011;46977;50.936;6.908;2022-12-29T15:07:18;3.60;;;0.65;;
61096;SDS011;46977;50.936;6.908;2022-12-29T15:10:21;2.30;;;0.85;;
61096;SDS011;46977;50.936;6.908;2022-12-29T15:13:32;3.35;;;0.38;;
61096;SDS011;46977;50.936;6.908;2022-12-29T15:16:35;2.83;;;0.55;;
61096;SDS011;46977;50.936;6.908;2022-12-29T15:19:39;3.13;;;0.82;;
61096;SDS011;46977;50.936;6.908;2022-12-29T15:22:42;5.05;;;0.50;;
61096;SDS011;46977;50.936;6.908;2022-12-29T15:25:47;3.80;;;0.60;;
61096;SDS011;46977;50.936;6.908;2022-12-29T15:28:52;4.22;;;1.10;;
61096;SDS011;46977;50.936;6.908;2022-12-29T15:31:56;6.13;;;0.95;;
61096;SDS011;46977;50.936;6.908;2022-12-29T15:34:59;2.80;;;0.30;;
61096;SDS011;46977;50.936;6.908;2022-12-29T15:38:14;3.15;;;0.52;;
61096;SDS011;46977;50.936;6.908;2022-12-29T15:41:22;4.50;;;0.38;;
61096;SDS011;46977;50.936;6.908;2022-12-29T15:44:29;5.47;;;0.40;;
61096;SDS011;46977;50.936;6.908;2022-12-29T15:47:34;7.55;;;0.40;;
61096;SDS011;46977;50.936;6.908;2022-12-29T15:50:37;5.78;;;0.43;;
61096;SDS011;46977;50.936;6.908;2022-12-29T15:53:42;6.35;;;0.35;;
61096;SDS011;46977;50.936;6.908;2022-12-29T15:56:48;2.90;;;0.70;;
61096;SDS011;46977;50.936;6.908;2022-12-29T15:59:51;7.05;;;1.30;;
61096;SDS011;46977;50.936;6.908;2022-12-29T16:02:56;6.18;;;1.17;;
61096;SDS011;46977;50.936;6.908;2022-12-29T16:06:07;2.13;;;0.63;;
61096;SDS011;46977;50.936;6.908;2022-12-29T16:09:14;5.47;;;1.50;;
61096;SDS011;46977;50.936;6.908;2022-12-29T16:12:19;8.52;;;0.55;;
61096;SDS011;46977;50.936;6.908;2022-12-29T16:15:23;4.03;;;0.43;;
61096;SDS011;46977;50.936;6.908;2022-12-29T16:18:30;4.60;;;0.70;;
61096;SDS011;46977;50.936;6.908;2022-12-29T16:21:35;1.73;;;0.80;;
61096;SDS011;46977;50.936;6.908;2022-12-29T16:24:39;4.25;;;0.90;;
61096;SDS011;46977;50.936;6.908;2022-12-29T16:27:42;3.40;;;0.45;;
61096;SDS011;46977;50.936;6.908;2022-12-29T16:30:45;4.03;;;0.50;;
61096;SDS011;46977;50.936;6.908;2022-12-29T16:33:48;5.57;;;0.70;;
61096;SDS011;46977;50.936;6.908;2022-12-29T16:36:55;7.72;;;0.55;;
61096;SDS011;46977;50.936;6.908;2022-12-29T16:43:29;2.17;;;0.60;;
61096;SDS011;46977;50.936;6.908;2022-12-29T16:46:33;5.28;;;1.23;;
61096;SDS011;46977;50.936;6.908;2022-12-29T16:49:35;2.33;;;0.90;;
61096;SDS011;46977;50.936;6.908;2022-12-29T16:52:39;4.30;;;0.82;;
61096;SDS011;46977;50.936;6.908;2022-12-29T16:55:46;4.97;;;2.30;;
61096;SDS011;46977;50.936;6.908;2022-12-29T16:58:49;6.25;;;1.35;;
61096;SDS011;46977;50.936;6.908;2022-12-29T17:01:55;3.03;;;0.57;;
61096;SDS011;46977;50.936;6.908;2022-12-29T17:04:59;5.65;;;0.80;;
61096;SDS011;46977;50.936;6.908;2022-12-29T17:08:01;8.63;;;1.05;;
61096;SDS011;46977;50.936;6.908;2022-12-29T17:11:08;12.63;;;0.75;;
61096;SDS011;46977;50.936;6.908;2022-12-29T17:14:40;6.40;;;0.73;;
61096;SDS011;46977;50.936;6.908;2022-12-29T17:17:45;3.33;;;1.08;;
61096;SDS011;46977;50.936;6.908;2022-12-29T17:20:48;3.05;;;0.82;;
61096;SDS011;46977;50.936;6.908;2022-12-29T17:23:50;5.50;;;0.75;;
61096;SDS011;46977;50.936;6.908;2022-12-29T17:26:55;4.82;;;0.70;;
61096;SDS011;46977;50.936;6.908;2022-12-29T17:30:00;9.77;;;0.95;;
61096;SDS011;46977;50.936;6.908;2022-12-29T17:33:05;4.75;;;0.70;;
61096;SDS011;46977;50.936;6.908;2022-12-29T17:36:11;6.35;;;0.60;;
61096;SDS011;46977;50.936;6.908;2022-12-29T17:39:13;4.60;;;1.17;;
61096;SDS011;46977;50.936;6.908;2022-12-29T17:42:17;2.70;;;0.82;;
61096;SDS011;46977;50.936;6.908;2022-12-29T17:45:22;6.38;;;1.58;;
61096;SDS011;46977;50.936;6.908;2022-12-29T17:48:25;10.63;;;1.83;;
61096;SDS011;46977;50.936;6.908;2022-12-29T17:51:28;5.15;;;0.82;;
61096;SDS011;46977;50.936;6.908;2022-12-29T17:54:30;6.38;;;0.80;;
61096;SDS011;46977;50.936;6.908;2022-12-29T17:57:34;6.18;;;0.52;;
61096;SDS011;46977;50.936;6.908;2022-12-29T18:00:36;5.32;;;0.70;;
61096;SDS011;46977;50.936;6.908;2022-12-29T18:03:39;5.90;;;1.65;;
61096;SDS011;46977;50.936;6.908;2022-12-29T18:06:42;7.65;;;1.75;;
61096;SDS011;46977;50.936;6.908;2022-12-29T18:09:45;7.07;;;1.50;;
61096;SDS011;46977;50.936;6.908;2022-12-29T18:12:49;8.55;;;1.20;;
61096;SDS011;46977;50.936;6.908;2022-12-29T18:15:52;4.90;;;1.80;;
61096;SDS011;46977;50.936;6.908;2022-12-29T18:18:54;9.52;;;1.90;;
61096;SDS011;46977;50.936;6.908;2022-12-29T18:21:57;7.07;;;1.50;;
61096;SDS011;46977;50.936;6.908;2022-12-29T18:24:59;5.80;;;1.27;;
61096;SDS011;46977;50.936;6.908;2022-12-29T18:28:04;4.35;;;1.15;;
61096;SDS011;46977;50.936;6.908;2022-12-29T18:31:08;8.45;;;0.80;;
61096;SDS011;46977;50.936;6.908;2022-12-29T18:34:17;10.05;;;2.08;;
61096;SDS011;46977;50.936;6.908;2022-12-29T18:37:20;11.20;;;1.95;;
61096;SDS011;46977;50.936;6.908;2022-12-29T18:40:23;4.03;;;0.88;;
61096;SDS011;46977;50.936;6.908;2022-12-29T18:43:27;10.75;;;2.42;;
61096;SDS011;46977;50.936;6.908;2022-12-29T18:46:29;3.75;;;0.93;;
61096;SDS011;46977;50.936;6.908;2022-12-29T18:49:31;7.50;;;1.27;;
61096;SDS011;46977;50.936;6.908;2022-12-29T18:52:34;7.03;;;1.80;;
61096;SDS011;46977;50.936;6.908;2022-12-29T18:55:36;5.78;;;1.73;;
61096;SDS011;46977;50.936;6.908;2022-12-29T18:58:40;13.00;;;1.02;;
61096;SDS011;46977;50.936;6.908;2022-12-29T19:01:42;9.07;;;2.17;;
61096;SDS011;46977;50.936;6.908;2022-12-29T19:04:45;14.13;;;3.08;;
61096;SDS011;46977;50.936;6.908;2022-12-29T19:07:53;8.40;;;0.85;;
61096;SDS011;46977;50.936;6.908;2022-12-29T19:10:56;7.18;;;1.88;;
61096;SDS011;46977;50.936;6.908;2022-12-29T19:14:01;6.97;;;0.77;;
61096;SDS011;46977;50.936;6.908;2022-12-29T19:17:04;8.48;;;1.42;;
61096;SDS011;46977;50.936;6.908;2022-12-29T19:20:09;4.32;;;0.85;;